sensor_id;sensor_type;location;lat;lon;timestamp;temperature;humidity
67555;HTU21D;54385;53.516;49.456;2022-09-30T00:00:33;10.82;86.76
67555;HTU21D;54385;53.516;49.456;2022-09-30T00:02:59;10.79;86.96
67555;HTU21D;54385;53.516;49.456;2022-09-30T00:05:27;10.73;86.78
67555;HTU21D;54385;53.516;49.456;2022-09-30T00:07:53;10.77;87.18
67555;HTU21D;54385;53.516;49.456;2022-09-30T00:10:20;10.70;86.46
67555;HTU21D;54385;53.516;49.456;2022-09-30T00:12:47;10.65;86.60
67555;HTU21D;54385;53.516;49.456;2022-09-30T00:15:13;10.59;86.76
67555;HTU21D;54385;53.516;49.456;2022-09-30T00:17:40;10.58;86.81
67555;HTU21D;54385;53.516;49.456;2022-09-30T00:20:07;10.53;86.88
67555;HTU21D;54385;53.516;49.456;2022-09-30T00:22:33;10.57;86.87
67555;HTU21D;54385;53.516;49.456;2022-09-30T00:25:00;10.59;87.05
67555;HTU21D;54385;53.516;49.456;2022-09-30T00:27:27;10.66;87.18
67555;HTU21D;54385;53.516;49.456;2022-09-30T00:29:53;10.68;86.86
67555;HTU21D;54385;53.516;49.456;2022-09-30T00:32:20;10.77;86.44
67555;HTU21D;54385;53.516;49.456;2022-09-30T00:34:46;10.80;86.38
67555;HTU21D;54385;53.516;49.456;2022-09-30T00:37:13;10.80;86.34
67555;HTU21D;54385;53.516;49.456;2022-09-30T00:39:40;10.79;86.16
67555;HTU21D;54385;53.516;49.456;2022-09-30T00:42:12;10.83;85.91
67555;HTU21D;54385;53.516;49.456;2022-09-30T00:50:41;10.65;86.09
67555;HTU21D;54385;53.516;49.456;2022-09-30T00:53:21;10.64;86.50
67555;HTU21D;54385;53.516;49.456;2022-09-30T00:55:54;10.56;86.50
67555;HTU21D;54385;53.516;49.456;2022-09-30T00:58:27;10.50;86.83
67555;HTU21D;54385;53.516;49.456;2022-09-30T01:00:56;10.51;87.02
67555;HTU21D;54385;53.516;49.456;2022-09-30T01:03:24;10.55;87.03
67555;HTU21D;54385;53.516;49.456;2022-09-30T01:05:51;10.58;86.92
67555;HTU21D;54385;53.516;49.456;2022-09-30T01:08:19;10.62;86.86
67555;HTU21D;54385;53.516;49.456;2022-09-30T01:10:47;10.54;86.69
67555;HTU21D;54385;53.516;49.456;2022-09-30T01:13:14;10.42;86.74
67555;HTU21D;54385;53.516;49.456;2022-09-30T01:15:55;10.27;87.20
67555;HTU21D;54385;53.516;49.456;2022-09-30T01:18:42;10.16;87.82
67555;HTU21D;54385;53.516;49.456;2022-09-30T01:21:27;10.09;87.81
67555;HTU21D;54385;53.516;49.456;2022-09-30T01:30:09;10.28;87.01
67555;HTU21D;54385;53.516;49.456;2022-09-30T01:38:25;10.28;86.99
67555;HTU21D;54385;53.516;49.456;2022-09-30T01:41:43;10.30;86.82
67555;HTU21D;54385;53.516;49.456;2022-09-30T01:44:09;10.37;86.67
67555;HTU21D;54385;53.516;49.456;2022-09-30T01:47:08;10.33;86.41
67555;HTU21D;54385;53.516;49.456;2022-09-30T01:50:37;10.28;86.46
67555;HTU21D;54385;53.516;49.456;2022-09-30T01:52:51;10.34;86.04
67555;HTU21D;54385;53.516;49.456;2022-09-30T01:55:28;10.34;86.16
67555;HTU21D;54385;53.516;49.456;2022-09-30T01:58:11;10.30;86.32
67555;HTU21D;54385;53.516;49.456;2022-09-30T02:00:42;10.23;86.62
67555;HTU21D;54385;53.516;49.456;2022-09-30T02:03:16;10.22;86.74
67555;HTU21D;54385;53.516;49.456;2022-09-30T02:06:01;10.27;86.48
67555;HTU21D;54385;53.516;49.456;2022-09-30T02:08:31;10.28;86.30
67555;HTU21D;54385;53.516;49.456;2022-09-30T02:11:27;10.21;86.42
67555;HTU21D;54385;53.516;49.456;2022-09-30T02:14:21;10.20;86.20
67555;HTU21D;54385;53.516;49.456;2022-09-30T02:17:02;10.22;86.10
67555;HTU21D;54385;53.516;49.456;2022-09-30T02:19:39;10.18;85.84
67555;HTU21D;54385;53.516;49.456;2022-09-30T02:22:19;10.19;86.09
67555;HTU21D;54385;53.516;49.456;2022-09-30T02:24:50;10.20;86.51
67555;HTU21D;54385;53.516;49.456;2022-09-30T02:27:22;10.23;86.72
67555;HTU21D;54385;53.516;49.456;2022-09-30T02:29:54;10.24;86.61
67555;HTU21D;54385;53.516;49.456;2022-09-30T02:32:26;10.20;86.38
67555;HTU21D;54385;53.516;49.456;2022-09-30T02:35:20;10.23;86.18
67555;HTU21D;54385;53.516;49.456;2022-09-30T02:37:51;10.25;85.93
67555;HTU21D;54385;53.516;49.456;2022-09-30T02:40:38;10.19;86.00
67555;HTU21D;54385;53.516;49.456;2022-09-30T02:43:08;10.15;85.90
67555;HTU21D;54385;53.516;49.456;2022-09-30T02:45:45;10.13;85.77
67555;HTU21D;54385;53.516;49.456;2022-09-30T02:48:25;10.12;86.12
67555;HTU21D;54385;53.516;49.456;2022-09-30T02:51:05;10.16;85.26
67555;HTU21D;54385;53.516;49.456;2022-09-30T02:53:44;10.20;85.15
67555;HTU21D;54385;53.516;49.456;2022-09-30T02:56:44;10.21;85.31
67555;HTU21D;54385;53.516;49.456;2022-09-30T02:59:11;10.19;85.16
67555;HTU21D;54385;53.516;49.456;2022-09-30T03:01:37;10.21;85.06
67555;HTU21D;54385;53.516;49.456;2022-09-30T03:04:12;10.16;85.34
67555;HTU21D;54385;53.516;49.456;2022-09-30T03:06:40;10.06;85.77
67555;HTU21D;54385;53.516;49.456;2022-09-30T03:09:07;10.00;85.54
67555;HTU21D;54385;53.516;49.456;2022-09-30T03:11:35;10.08;85.80
67555;HTU21D;54385;53.516;49.456;2022-09-30T03:14:11;9.99;85.69
67555;HTU21D;54385;53.516;49.456;2022-09-30T03:25:13;9.99;85.77
67555;HTU21D;54385;53.516;49.456;2022-09-30T03:27:52;9.98;85.56
67555;HTU21D;54385;53.516;49.456;2022-09-30T03:30:25;9.99;85.57
67555;HTU21D;54385;53.516;49.456;2022-09-30T03:47:19;10.11;84.36
67555;HTU21D;54385;53.516;49.456;2022-09-30T03:49:30;10.04;84.64
67555;HTU21D;54385;53.516;49.456;2022-09-30T03:51:58;10.09;84.90
67555;HTU21D;54385;53.516;49.456;2022-09-30T03:54:25;10.06;84.63
67555;HTU21D;54385;53.516;49.456;2022-09-30T03:56:51;10.11;84.71
67555;HTU21D;54385;53.516;49.456;2022-09-30T03:59:24;10.08;84.55
67555;HTU21D;54385;53.516;49.456;2022-09-30T04:01:53;10.10;84.42
67555;HTU21D;54385;53.516;49.456;2022-09-30T04:04:19;10.15;84.60
67555;HTU21D;54385;53.516;49.456;2022-09-30T04:06:46;10.18;84.24
67555;HTU21D;54385;53.516;49.456;2022-09-30T04:09:12;10.25;84.52
67555;HTU21D;54385;53.516;49.456;2022-09-30T04:11:38;10.29;84.20
67555;HTU21D;54385;53.516;49.456;2022-09-30T04:14:05;10.34;84.15
67555;HTU21D;54385;53.516;49.456;2022-09-30T04:16:32;10.34;84.03
67555;HTU21D;54385;53.516;49.456;2022-09-30T04:18:59;10.35;84.27
67555;HTU21D;54385;53.516;49.456;2022-09-30T04:21:26;10.39;84.49
67555;HTU21D;54385;53.516;49.456;2022-09-30T04:23:55;10.40;83.49
67555;HTU21D;54385;53.516;49.456;2022-09-30T04:26:22;10.49;84.10
67555;HTU21D;54385;53.516;49.456;2022-09-30T04:28:48;10.51;83.70
67555;HTU21D;54385;53.516;49.456;2022-09-30T04:31:16;10.59;83.24
67555;HTU21D;54385;53.516;49.456;2022-09-30T04:33:44;10.65;83.07
67555;HTU21D;54385;53.516;49.456;2022-09-30T04:36:10;10.70;82.29
67555;HTU21D;54385;53.516;49.456;2022-09-30T04:38:37;10.80;82.29
67555;HTU21D;54385;53.516;49.456;2022-09-30T04:41:05;10.86;81.84
67555;HTU21D;54385;53.516;49.456;2022-09-30T04:43:32;10.94;81.50
67555;HTU21D;54385;53.516;49.456;2022-09-30T04:45:59;11.02;81.30
67555;HTU21D;54385;53.516;49.456;2022-09-30T04:48:26;10.98;81.35
67555;HTU21D;54385;53.516;49.456;2022-09-30T04:50:54;11.02;81.51
67555;HTU21D;54385;53.516;49.456;2022-09-30T04:53:20;11.08;80.68
67555;HTU21D;54385;53.516;49.456;2022-09-30T04:55:46;11.03;80.95
67555;HTU21D;54385;53.516;49.456;2022-09-30T04:58:12;11.04;80.71
67555;HTU21D;54385;53.516;49.456;2022-09-30T05:00:40;11.02;80.85
67555;HTU21D;54385;53.516;49.456;2022-09-30T05:03:06;10.96;81.50
67555;HTU21D;54385;53.516;49.456;2022-09-30T05:05:32;10.95;80.71
67555;HTU21D;54385;53.516;49.456;2022-09-30T05:08:00;11.03;81.32
67555;HTU21D;54385;53.516;49.456;2022-09-30T05:10:27;11.11;80.94
67555;HTU21D;54385;53.516;49.456;2022-09-30T05:12:55;11.24;80.43
67555;HTU21D;54385;53.516;49.456;2022-09-30T05:15:23;11.24;79.71
67555;HTU21D;54385;53.516;49.456;2022-09-30T05:17:51;11.26;80.05
67555;HTU21D;54385;53.516;49.456;2022-09-30T05:20:18;11.28;79.68
67555;HTU21D;54385;53.516;49.456;2022-09-30T05:22:44;11.25;80.11
67555;HTU21D;54385;53.516;49.456;2022-09-30T05:25:12;11.33;79.91
67555;HTU21D;54385;53.516;49.456;2022-09-30T05:27:39;11.38;79.69
67555;HTU21D;54385;53.516;49.456;2022-09-30T05:30:08;11.45;79.64
67555;HTU21D;54385;53.516;49.456;2022-09-30T05:32:35;11.51;79.16
67555;HTU21D;54385;53.516;49.456;2022-09-30T05:35:02;11.54;79.49
67555;HTU21D;54385;53.516;49.456;2022-09-30T05:37:28;11.64;78.79
67555;HTU21D;54385;53.516;49.456;2022-09-30T05:39:55;11.75;78.84
67555;HTU21D;54385;53.516;49.456;2022-09-30T05:42:22;11.81;78.91
67555;HTU21D;54385;53.516;49.456;2022-09-30T05:44:48;11.88;78.53
67555;HTU21D;54385;53.516;49.456;2022-09-30T05:47:14;11.93;78.20
67555;HTU21D;54385;53.516;49.456;2022-09-30T05:49:41;11.90;78.20
67555;HTU21D;54385;53.516;49.456;2022-09-30T05:52:07;11.93;77.75
67555;HTU21D;54385;53.516;49.456;2022-09-30T05:54:34;11.92;78.14
67555;HTU21D;54385;53.516;49.456;2022-09-30T05:57:01;11.98;77.86
67555;HTU21D;54385;53.516;49.456;2022-09-30T05:59:27;12.07;78.16
67555;HTU21D;54385;53.516;49.456;2022-09-30T06:01:53;12.13;77.76
67555;HTU21D;54385;53.516;49.456;2022-09-30T06:04:20;12.22;77.21
67555;HTU21D;54385;53.516;49.456;2022-09-30T06:06:47;12.17;76.28
67555;HTU21D;54385;53.516;49.456;2022-09-30T06:09:15;12.28;77.31
67555;HTU21D;54385;53.516;49.456;2022-09-30T06:11:44;12.30;76.41
67555;HTU21D;54385;53.516;49.456;2022-09-30T06:14:11;12.34;76.60
67555;HTU21D;54385;53.516;49.456;2022-09-30T06:16:38;12.34;76.60
67555;HTU21D;54385;53.516;49.456;2022-09-30T06:19:08;12.29;76.39
67555;HTU21D;54385;53.516;49.456;2022-09-30T06:21:34;12.28;76.09
67555;HTU21D;54385;53.516;49.456;2022-09-30T06:24:01;12.29;76.78
67555;HTU21D;54385;53.516;49.456;2022-09-30T06:26:33;12.47;76.44
67555;HTU21D;54385;53.516;49.456;2022-09-30T06:29:00;12.59;75.97
67555;HTU21D;54385;53.516;49.456;2022-09-30T06:31:27;12.73;75.70
67555;HTU21D;54385;53.516;49.456;2022-09-30T06:33:59;12.72;74.98
67555;HTU21D;54385;53.516;49.456;2022-09-30T06:36:27;12.76;75.02
67555;HTU21D;54385;53.516;49.456;2022-09-30T06:38:54;12.91;75.40
67555;HTU21D;54385;53.516;49.456;2022-09-30T06:41:21;12.87;74.82
67555;HTU21D;54385;53.516;49.456;2022-09-30T06:43:50;12.92;74.57
67555;HTU21D;54385;53.516;49.456;2022-09-30T06:46:17;12.99;74.77
67555;HTU21D;54385;53.516;49.456;2022-09-30T06:48:44;13.14;74.89
67555;HTU21D;54385;53.516;49.456;2022-09-30T06:51:18;13.25;74.06
67555;HTU21D;54385;53.516;49.456;2022-09-30T06:53:49;13.39;73.80
67555;HTU21D;54385;53.516;49.456;2022-09-30T06:56:19;13.51;72.81
67555;HTU21D;54385;53.516;49.456;2022-09-30T06:58:49;13.53;72.43
67555;HTU21D;54385;53.516;49.456;2022-09-30T07:01:15;13.51;72.87
67555;HTU21D;54385;53.516;49.456;2022-09-30T07:03:49;13.60;72.09
67555;HTU21D;54385;53.516;49.456;2022-09-30T07:06:21;13.64;71.13
67555;HTU21D;54385;53.516;49.456;2022-09-30T07:08:47;13.76;71.91
67555;HTU21D;54385;53.516;49.456;2022-09-30T07:11:14;13.84;71.55
67555;HTU21D;54385;53.516;49.456;2022-09-30T07:13:42;13.96;71.77
67555;HTU21D;54385;53.516;49.456;2022-09-30T07:16:12;13.97;71.22
67555;HTU21D;54385;53.516;49.456;2022-09-30T07:18:43;14.00;71.29
67555;HTU21D;54385;53.516;49.456;2022-09-30T07:21:14;13.91;71.10
67555;HTU21D;54385;53.516;49.456;2022-09-30T07:23:44;13.95;70.74
67555;HTU21D;54385;53.516;49.456;2022-09-30T07:26:22;13.94;70.91
67555;HTU21D;54385;53.516;49.456;2022-09-30T07:28:52;13.93;71.49
67555;HTU21D;54385;53.516;49.456;2022-09-30T07:31:22;13.97;70.79
67555;HTU21D;54385;53.516;49.456;2022-09-30T07:33:49;14.09;70.71
67555;HTU21D;54385;53.516;49.456;2022-09-30T07:36:22;14.09;70.12
67555;HTU21D;54385;53.516;49.456;2022-09-30T07:38:52;14.10;70.20
67555;HTU21D;54385;53.516;49.456;2022-09-30T07:41:24;14.21;70.48
67555;HTU21D;54385;53.516;49.456;2022-09-30T07:43:56;14.38;69.94
67555;HTU21D;54385;53.516;49.456;2022-09-30T07:46:30;14.55;68.48
67555;HTU21D;54385;53.516;49.456;2022-09-30T07:48:59;14.63;69.01
67555;HTU21D;54385;53.516;49.456;2022-09-30T07:51:36;14.68;69.01
67555;HTU21D;54385;53.516;49.456;2022-09-30T07:54:10;14.78;69.04
67555;HTU21D;54385;53.516;49.456;2022-09-30T07:56:38;14.63;68.53
67555;HTU21D;54385;53.516;49.456;2022-09-30T07:59:05;14.64;69.25
67555;HTU21D;54385;53.516;49.456;2022-09-30T08:01:31;14.54;69.10
67555;HTU21D;54385;53.516;49.456;2022-09-30T08:04:00;14.47;69.57
67555;HTU21D;54385;53.516;49.456;2022-09-30T08:06:30;14.47;69.39
67555;HTU21D;54385;53.516;49.456;2022-09-30T08:08:58;14.50;68.46
67555;HTU21D;54385;53.516;49.456;2022-09-30T08:11:24;14.41;69.54
67555;HTU21D;54385;53.516;49.456;2022-09-30T08:13:53;14.45;69.24
67555;HTU21D;54385;53.516;49.456;2022-09-30T08:16:22;14.37;68.84
67555;HTU21D;54385;53.516;49.456;2022-09-30T08:18:52;14.43;69.49
67555;HTU21D;54385;53.516;49.456;2022-09-30T08:21:18;14.44;68.87
67555;HTU21D;54385;53.516;49.456;2022-09-30T08:23:46;14.33;69.52
67555;HTU21D;54385;53.516;49.456;2022-09-30T08:26:13;14.34;69.21
67555;HTU21D;54385;53.516;49.456;2022-09-30T08:28:45;14.23;70.51
67555;HTU21D;54385;53.516;49.456;2022-09-30T08:31:19;14.10;70.87
67555;HTU21D;54385;53.516;49.456;2022-09-30T08:33:47;13.88;70.83
67555;HTU21D;54385;53.516;49.456;2022-09-30T08:36:19;13.88;71.04
67555;HTU21D;54385;53.516;49.456;2022-09-30T08:38:46;13.95;71.55
67555;HTU21D;54385;53.516;49.456;2022-09-30T08:46:53;14.06;70.04
67555;HTU21D;54385;53.516;49.456;2022-09-30T08:52:25;14.13;70.32
67555;HTU21D;54385;53.516;49.456;2022-09-30T08:54:53;14.11;70.21
67555;HTU21D;54385;53.516;49.456;2022-09-30T08:57:21;14.20;70.04
67555;HTU21D;54385;53.516;49.456;2022-09-30T08:59:58;14.13;69.55
67555;HTU21D;54385;53.516;49.456;2022-09-30T09:02:37;14.21;70.09
67555;HTU21D;54385;53.516;49.456;2022-09-30T09:05:16;14.20;69.52
67555;HTU21D;54385;53.516;49.456;2022-09-30T09:08:06;14.25;70.08
67555;HTU21D;54385;53.516;49.456;2022-09-30T09:10:42;14.33;69.94
67555;HTU21D;54385;53.516;49.456;2022-09-30T09:16:09;14.37;69.42
67555;HTU21D;54385;53.516;49.456;2022-09-30T09:19:06;14.34;69.60
67555;HTU21D;54385;53.516;49.456;2022-09-30T09:21:56;14.34;69.23
67555;HTU21D;54385;53.516;49.456;2022-09-30T09:24:32;14.38;69.32
67555;HTU21D;54385;53.516;49.456;2022-09-30T09:27:17;14.47;68.55
67555;HTU21D;54385;53.516;49.456;2022-09-30T09:32:33;14.36;68.90
67555;HTU21D;54385;53.516;49.456;2022-09-30T09:35:13;14.32;69.23
67555;HTU21D;54385;53.516;49.456;2022-09-30T09:43:50;14.24;69.52
67555;HTU21D;54385;53.516;49.456;2022-09-30T09:54:40;14.03;69.65
67555;HTU21D;54385;53.516;49.456;2022-09-30T09:57:09;14.09;70.25
67555;HTU21D;54385;53.516;49.456;2022-09-30T09:59:37;14.14;70.05
67555;HTU21D;54385;53.516;49.456;2022-09-30T10:02:27;14.21;70.17
67555;HTU21D;54385;53.516;49.456;2022-09-30T10:04:54;14.11;70.05
67555;HTU21D;54385;53.516;49.456;2022-09-30T10:07:30;14.03;69.88
67555;HTU21D;54385;53.516;49.456;2022-09-30T10:10:26;13.92;69.84
67555;HTU21D;54385;53.516;49.456;2022-09-30T10:12:54;13.85;70.13
67555;HTU21D;54385;53.516;49.456;2022-09-30T10:15:23;13.76;70.55
67555;HTU21D;54385;53.516;49.456;2022-09-30T10:17:53;13.79;70.52
67555;HTU21D;54385;53.516;49.456;2022-09-30T10:20:27;13.92;70.36
67555;HTU21D;54385;53.516;49.456;2022-09-30T10:23:18;13.93;69.74
67555;HTU21D;54385;53.516;49.456;2022-09-30T10:25:59;13.93;70.24
67555;HTU21D;54385;53.516;49.456;2022-09-30T10:28:31;13.92;69.72
67555;HTU21D;54385;53.516;49.456;2022-09-30T10:33:49;13.97;69.47
67555;HTU21D;54385;53.516;49.456;2022-09-30T10:36:19;14.00;69.47
67555;HTU21D;54385;53.516;49.456;2022-09-30T10:41:37;14.19;68.81
67555;HTU21D;54385;53.516;49.456;2022-09-30T10:44:11;14.23;68.31
67555;HTU21D;54385;53.516;49.456;2022-09-30T10:46:40;14.22;68.11
67555;HTU21D;54385;53.516;49.456;2022-09-30T10:49:22;14.20;68.49
67555;HTU21D;54385;53.516;49.456;2022-09-30T10:51:49;14.14;67.72
67555;HTU21D;54385;53.516;49.456;2022-09-30T10:54:49;14.11;68.47
67555;HTU21D;54385;53.516;49.456;2022-09-30T10:59:46;14.19;68.44
67555;HTU21D;54385;53.516;49.456;2022-09-30T11:02:24;14.09;68.77
67555;HTU21D;54385;53.516;49.456;2022-09-30T11:05:17;14.04;69.24
67555;HTU21D;54385;53.516;49.456;2022-09-30T11:08:08;13.99;68.84
67555;HTU21D;54385;53.516;49.456;2022-09-30T11:11:04;13.93;69.15
67555;HTU21D;54385;53.516;49.456;2022-09-30T11:18:49;13.82;69.36
67555;HTU21D;54385;53.516;49.456;2022-09-30T11:21:34;13.76;69.26
67555;HTU21D;54385;53.516;49.456;2022-09-30T11:26:43;13.60;70.23
67555;HTU21D;54385;53.516;49.456;2022-09-30T11:29:42;13.55;70.64
67555;HTU21D;54385;53.516;49.456;2022-09-30T11:40:48;13.48;70.90
67555;HTU21D;54385;53.516;49.456;2022-09-30T11:46:24;13.33;71.28
67555;HTU21D;54385;53.516;49.456;2022-09-30T11:52:01;13.34;72.24
67555;HTU21D;54385;53.516;49.456;2022-09-30T11:54:49;13.35;71.54
67555;HTU21D;54385;53.516;49.456;2022-09-30T11:57:40;13.34;71.79
67555;HTU21D;54385;53.516;49.456;2022-09-30T12:02:39;13.26;71.83
67555;HTU21D;54385;53.516;49.456;2022-09-30T12:05:10;13.24;72.24
67555;HTU21D;54385;53.516;49.456;2022-09-30T12:07:43;13.19;72.33
67555;HTU21D;54385;53.516;49.456;2022-09-30T12:10:32;13.15;72.52
67555;HTU21D;54385;53.516;49.456;2022-09-30T12:13:37;13.12;72.49
67555;HTU21D;54385;53.516;49.456;2022-09-30T12:16:19;13.12;73.06
67555;HTU21D;54385;53.516;49.456;2022-09-30T12:18:54;13.03;72.72
67555;HTU21D;54385;53.516;49.456;2022-09-30T12:21:27;12.93;73.57
67555;HTU21D;54385;53.516;49.456;2022-09-30T12:24:19;13.00;73.27
67555;HTU21D;54385;53.516;49.456;2022-09-30T12:26:49;13.00;73.67
67555;HTU21D;54385;53.516;49.456;2022-09-30T12:29:41;13.01;73.91
67555;HTU21D;54385;53.516;49.456;2022-09-30T12:32:39;12.97;74.04
67555;HTU21D;54385;53.516;49.456;2022-09-30T12:38:30;13.00;74.01
67555;HTU21D;54385;53.516;49.456;2022-09-30T12:41:14;12.96;73.97
67555;HTU21D;54385;53.516;49.456;2022-09-30T12:47:13;12.99;74.40
67555;HTU21D;54385;53.516;49.456;2022-09-30T12:49:38;13.06;73.42
67555;HTU21D;54385;53.516;49.456;2022-09-30T12:52:10;13.11;73.09
67555;HTU21D;54385;53.516;49.456;2022-09-30T12:54:47;13.06;73.12
67555;HTU21D;54385;53.516;49.456;2022-09-30T12:57:25;13.06;73.25
67555;HTU21D;54385;53.516;49.456;2022-09-30T13:00:01;12.97;73.44
67555;HTU21D;54385;53.516;49.456;2022-09-30T13:02:35;12.89;73.90
67555;HTU21D;54385;53.516;49.456;2022-09-30T13:13:25;12.85;74.49
67555;HTU21D;54385;53.516;49.456;2022-09-30T13:15:55;12.82;74.58
67555;HTU21D;54385;53.516;49.456;2022-09-30T13:26:04;12.73;75.67
67555;HTU21D;54385;53.516;49.456;2022-09-30T13:28:51;12.69;75.83
67555;HTU21D;54385;53.516;49.456;2022-09-30T13:31:22;12.66;75.81
67555;HTU21D;54385;53.516;49.456;2022-09-30T13:42:26;12.46;75.83
67555;HTU21D;54385;53.516;49.456;2022-09-30T13:45:10;12.40;75.90
67555;HTU21D;54385;53.516;49.456;2022-09-30T13:47:58;12.42;75.73
67555;HTU21D;54385;53.516;49.456;2022-09-30T13:50:31;12.33;75.40
67555;HTU21D;54385;53.516;49.456;2022-09-30T13:53:01;12.28;75.71
67555;HTU21D;54385;53.516;49.456;2022-09-30T13:55:47;12.21;75.70
67555;HTU21D;54385;53.516;49.456;2022-09-30T14:11:52;11.98;76.57
67555;HTU21D;54385;53.516;49.456;2022-09-30T14:14:28;11.97;76.29
67555;HTU21D;54385;53.516;49.456;2022-09-30T14:22:29;11.88;77.13
67555;HTU21D;54385;53.516;49.456;2022-09-30T14:24:56;11.82;76.74
67555;HTU21D;54385;53.516;49.456;2022-09-30T14:27:37;11.79;76.69
67555;HTU21D;54385;53.516;49.456;2022-09-30T14:32:47;11.74;76.72
67555;HTU21D;54385;53.516;49.456;2022-09-30T14:35:20;11.73;77.00
67555;HTU21D;54385;53.516;49.456;2022-09-30T14:40:28;11.71;76.92
67555;HTU21D;54385;53.516;49.456;2022-09-30T14:42:58;11.67;77.03
67555;HTU21D;54385;53.516;49.456;2022-09-30T14:45:32;11.57;77.70
67555;HTU21D;54385;53.516;49.456;2022-09-30T14:48:12;11.51;77.78
67555;HTU21D;54385;53.516;49.456;2022-09-30T14:50:48;11.57;77.66
67555;HTU21D;54385;53.516;49.456;2022-09-30T14:53:37;11.60;77.79
67555;HTU21D;54385;53.516;49.456;2022-09-30T14:56:19;11.60;77.72
67555;HTU21D;54385;53.516;49.456;2022-09-30T14:58:49;11.54;77.94
67555;HTU21D;54385;53.516;49.456;2022-09-30T15:01:19;11.54;77.54
67555;HTU21D;54385;53.516;49.456;2022-09-30T15:03:55;11.48;77.41
67555;HTU21D;54385;53.516;49.456;2022-09-30T15:06:24;11.56;77.64
67555;HTU21D;54385;53.516;49.456;2022-09-30T15:09:14;11.59;77.32
67555;HTU21D;54385;53.516;49.456;2022-09-30T15:11:41;11.62;77.29
67555;HTU21D;54385;53.516;49.456;2022-09-30T15:14:08;11.64;77.10
67555;HTU21D;54385;53.516;49.456;2022-09-30T15:16:50;11.64;76.76
67555;HTU21D;54385;53.516;49.456;2022-09-30T15:19:25;11.63;76.83
67555;HTU21D;54385;53.516;49.456;2022-09-30T15:22:00;11.49;77.22
67555;HTU21D;54385;53.516;49.456;2022-09-30T15:24:28;11.46;77.40
67555;HTU21D;54385;53.516;49.456;2022-09-30T15:26:58;11.42;77.49
67555;HTU21D;54385;53.516;49.456;2022-09-30T15:29:25;11.40;77.57
67555;HTU21D;54385;53.516;49.456;2022-09-30T15:31:58;11.33;77.54
67555;HTU21D;54385;53.516;49.456;2022-09-30T15:34:26;11.31;77.79
67555;HTU21D;54385;53.516;49.456;2022-09-30T15:36:59;11.26;78.14
67555;HTU21D;54385;53.516;49.456;2022-09-30T15:39:33;11.28;78.70
67555;HTU21D;54385;53.516;49.456;2022-09-30T15:42:35;11.25;78.07
67555;HTU21D;54385;53.516;49.456;2022-09-30T15:45:35;11.29;77.93
67555;HTU21D;54385;53.516;49.456;2022-09-30T15:48:05;11.29;78.14
67555;HTU21D;54385;53.516;49.456;2022-09-30T15:50:44;11.26;78.08
67555;HTU21D;54385;53.516;49.456;2022-09-30T15:55:46;11.30;78.14
67555;HTU21D;54385;53.516;49.456;2022-09-30T15:58:29;11.28;78.43
67555;HTU21D;54385;53.516;49.456;2022-09-30T16:01:14;11.28;78.11
67555;HTU21D;54385;53.516;49.456;2022-09-30T16:04:05;11.31;78.16
67555;HTU21D;54385;53.516;49.456;2022-09-30T16:17:35;11.28;77.99
67555;HTU21D;54385;53.516;49.456;2022-09-30T16:20:21;11.31;78.09
67555;HTU21D;54385;53.516;49.456;2022-09-30T16:22:52;11.36;77.94
67555;HTU21D;54385;53.516;49.456;2022-09-30T16:25:24;11.36;77.76
67555;HTU21D;54385;53.516;49.456;2022-09-30T16:28:14;11.39;77.50
67555;HTU21D;54385;53.516;49.456;2022-09-30T16:30:43;11.41;77.55
67555;HTU21D;54385;53.516;49.456;2022-09-30T16:33:12;11.40;77.71
67555;HTU21D;54385;53.516;49.456;2022-09-30T16:35:41;11.39;77.40
67555;HTU21D;54385;53.516;49.456;2022-09-30T16:38:13;11.40;77.45
67555;HTU21D;54385;53.516;49.456;2022-09-30T16:40:39;11.41;77.69
67555;HTU21D;54385;53.516;49.456;2022-09-30T16:43:06;11.44;77.16
67555;HTU21D;54385;53.516;49.456;2022-09-30T16:45:35;11.46;77.32
67555;HTU21D;54385;53.516;49.456;2022-09-30T16:48:16;11.52;77.23
67555;HTU21D;54385;53.516;49.456;2022-09-30T16:51:06;11.59;77.15
67555;HTU21D;54385;53.516;49.456;2022-09-30T16:53:33;11.57;76.76
67555;HTU21D;54385;53.516;49.456;2022-09-30T16:56:00;11.53;77.26
67555;HTU21D;54385;53.516;49.456;2022-09-30T16:58:26;11.51;77.60
67555;HTU21D;54385;53.516;49.456;2022-09-30T17:00:53;11.53;77.39
67555;HTU21D;54385;53.516;49.456;2022-09-30T17:03:19;11.56;77.25
67555;HTU21D;54385;53.516;49.456;2022-09-30T17:05:47;11.58;77.31
67555;HTU21D;54385;53.516;49.456;2022-09-30T17:08:19;11.56;77.44
67555;HTU21D;54385;53.516;49.456;2022-09-30T17:10:46;11.56;77.58
67555;HTU21D;54385;53.516;49.456;2022-09-30T17:13:16;11.53;77.61
67555;HTU21D;54385;53.516;49.456;2022-09-30T17:15:48;11.55;77.63
67555;HTU21D;54385;53.516;49.456;2022-09-30T17:18:15;11.55;77.57
67555;HTU21D;54385;53.516;49.456;2022-09-30T17:20:44;11.54;77.68
67555;HTU21D;54385;53.516;49.456;2022-09-30T17:23:11;11.57;77.82
67555;HTU21D;54385;53.516;49.456;2022-09-30T17:25:38;11.58;77.73
67555;HTU21D;54385;53.516;49.456;2022-09-30T17:28:12;11.59;77.92
67555;HTU21D;54385;53.516;49.456;2022-09-30T17:30:39;11.53;78.06
67555;HTU21D;54385;53.516;49.456;2022-09-30T17:33:07;11.54;78.01
67555;HTU21D;54385;53.516;49.456;2022-09-30T17:35:37;11.49;78.08
67555;HTU21D;54385;53.516;49.456;2022-09-30T17:38:07;11.46;78.05
67555;HTU21D;54385;53.516;49.456;2022-09-30T17:40:34;11.47;78.21
67555;HTU21D;54385;53.516;49.456;2022-09-30T17:43:19;11.47;77.87
67555;HTU21D;54385;53.516;49.456;2022-09-30T17:45:46;11.48;77.55
67555;HTU21D;54385;53.516;49.456;2022-09-30T17:48:14;11.44;77.67
67555;HTU21D;54385;53.516;49.456;2022-09-30T17:50:44;11.40;77.83
67555;HTU21D;54385;53.516;49.456;2022-09-30T17:53:12;11.38;78.33
67555;HTU21D;54385;53.516;49.456;2022-09-30T17:55:39;11.38;78.43
67555;HTU21D;54385;53.516;49.456;2022-09-30T17:58:07;11.40;78.21
67555;HTU21D;54385;53.516;49.456;2022-09-30T18:00:34;11.41;78.01
67555;HTU21D;54385;53.516;49.456;2022-09-30T18:03:01;11.40;78.34
67555;HTU21D;54385;53.516;49.456;2022-09-30T18:05:29;11.37;78.05
67555;HTU21D;54385;53.516;49.456;2022-09-30T18:07:55;11.31;77.95
67555;HTU21D;54385;53.516;49.456;2022-09-30T18:10:22;11.29;78.29
67555;HTU21D;54385;53.516;49.456;2022-09-30T18:12:50;11.32;78.28
67555;HTU21D;54385;53.516;49.456;2022-09-30T18:15:18;11.33;78.32
67555;HTU21D;54385;53.516;49.456;2022-09-30T18:17:45;11.30;78.57
67555;HTU21D;54385;53.516;49.456;2022-09-30T18:20:12;11.31;78.82
67555;HTU21D;54385;53.516;49.456;2022-09-30T18:22:39;11.30;78.70
67555;HTU21D;54385;53.516;49.456;2022-09-30T18:25:09;11.33;78.56
67555;HTU21D;54385;53.516;49.456;2022-09-30T18:27:50;11.29;78.32